Time;durP1;ratioP1;P1;durP2;ratioP2;P2;SDS_P1;SDS_P2;PMS_P1;PMS_P2;Temp;Humidity;BMP_temperature;BMP_pressure;BME280_temperature;BME280_humidity;BME280_pressure;Samples;Min_cycle;Max_cycle;Signal;HPM_P1;HPM_P2
2022/10/10 00:02:37;;;;;;;1.05;0.40;;;19.60;49.70;;;;;;20576490;28;20089;-74
2022/10/10 00:12:38;;;;;;;0.80;0.25;;;19.50;49.80;;;;;;20609725;28;20129;-74
2022/10/10 00:22:39;;;;;;;1.27;0.65;;;19.50;49.80;;;;;;20550051;28;20049;-74
2022/10/10 00:32:39;;;;;;;2.37;0.37;;;19.50;49.70;;;;;;20580783;28;20522;-73
2022/10/10 00:42:40;;;;;;;1.95;0.50;;;19.50;49.70;;;;;;20537723;28;20299;-74
2022/10/10 00:52:40;;;;;;;4.80;0.60;;;19.40;49.70;;;;;;20484742;28;20047;-74
2022/10/10 01:02:42;;;;;;;1.48;0.70;;;19.50;49.80;;;;;;20532668;28;20081;-75
2022/10/10 01:12:43;;;;;;;0.70;0.40;;;19.40;49.70;;;;;;20562409;28;20034;-74
2022/10/10 01:23:02;;;;;;;0.40;0.40;;;19.40;49.70;;;;;;20604441;28;20301;-74
2022/10/10 01:33:12;;;;;;;1.15;0.60;;;19.40;49.60;;;;;;20623841;28;20031;-73
2022/10/10 01:43:13;;;;;;;0.80;0.30;;;19.40;49.60;;;;;;20546162;28;20138;-73
2022/10/10 01:53:20;;;;;;;1.67;0.67;;;19.40;49.60;;;;;;20956738;23;20086;-73
2022/10/10 02:03:28;;;;;;;1.33;0.40;;;19.30;49.50;;;;;;20624241;28;20304;-73
2022/10/10 02:13:38;;;;;;;1.23;0.70;;;19.30;50.10;;;;;;20659396;28;20105;-74
2022/10/10 02:23:40;;;;;;;4.75;0.50;;;19.30;49.40;;;;;;20654987;28;20536;-73
2022/10/10 02:34:10;;;;;;;1.02;0.60;;;19.30;49.40;;;;;;20637751;28;20041;-73
2022/10/10 02:44:11;;;;;;;0.93;0.50;;;19.20;49.40;;;;;;20665829;28;20053;-73
2022/10/10 02:54:12;;;;;;;1.42;0.60;;;19.20;49.40;;;;;;20636379;28;20053;-74
2022/10/10 03:04:12;;;;;;;0.77;0.45;;;19.20;49.50;;;;;;20616386;28;20464;-73
2022/10/10 03:14:13;;;;;;;1.00;0.53;;;19.20;49.40;;;;;;20635964;28;20034;-73
2022/10/10 03:24:14;;;;;;;0.93;0.60;;;19.20;49.50;;;;;;20617926;28;20649;-72
2022/10/10 03:34:14;;;;;;;0.68;0.40;;;19.20;49.50;;;;;;20632969;28;20532;-74
2022/10/10 03:44:15;;;;;;;2.53;0.68;;;19.10;49.50;;;;;;20632148;28;20480;-73
2022/10/10 03:54:16;;;;;;;1.00;0.70;;;19.10;49.50;;;;;;20633432;28;20038;-73
2022/10/10 04:04:16;;;;;;;1.23;0.47;;;19.10;49.50;;;;;;20658300;28;20456;-74
2022/10/10 04:14:17;;;;;;;1.97;0.60;;;19.20;49.40;;;;;;20653847;28;20041;-73
2022/10/10 04:24:17;;;;;;;1.42;0.70;;;19.90;48.00;;;;;;20727173;28;20786;-74
2022/10/10 04:34:18;;;;;;;2.03;0.57;;;20.20;47.20;;;;;;20694393;28;20030;-74
2022/10/10 04:44:19;;;;;;;0.90;0.50;;;20.50;46.50;;;;;;20735856;28;20773;-78
2022/10/10 04:54:21;;;;;;;1.60;0.80;;;20.70;46.00;;;;;;20687426;28;20301;-78
2022/10/10 05:04:22;;;;;;;1.02;0.52;;;20.80;45.70;;;;;;20627431;28;20037;-79
2022/10/10 05:14:22;;;;;;;1.67;0.80;;;20.80;45.50;;;;;;20644663;28;20038;-77
2022/10/10 05:24:23;;;;;;;1.27;0.50;;;20.80;45.40;;;;;;20641794;28;20495;-76
2022/10/10 05:34:23;;;;;;;1.35;0.80;;;20.80;45.30;;;;;;20644884;28;20062;-77
2022/10/10 05:44:24;;;;;;;2.13;0.83;;;20.70;45.30;;;;;;20651882;28;20030;-82
2022/10/10 05:54:28;;;;;;;1.15;0.50;;;20.70;45.10;;;;;;20647810;28;20065;-80
2022/10/10 06:04:32;;;;;;;2.22;0.65;;;20.60;45.10;;;;;;20684048;28;20034;-81
2022/10/10 06:14:34;;;;;;;1.75;0.75;;;20.60;45.10;;;;;;20662570;28;20510;-80
2022/10/10 06:24:34;;;;;;;1.50;0.68;;;20.50;45.10;;;;;;20676477;28;20030;-80
2022/10/10 06:34:37;;;;;;;1.45;0.50;;;20.50;45.20;;;;;;20644079;28;20050;-80
2022/10/10 06:44:38;;;;;;;0.50;0.35;;;20.40;45.20;;;;;;20678480;28;20100;-81
2022/10/10 06:54:38;;;;;;;1.33;0.60;;;20.40;45.40;;;;;;20723700;28;20041;-80
2022/10/10 07:04:41;;;;;;;3.72;0.80;;;20.40;45.50;;;;;;20738337;28;20049;-81
2022/10/10 07:14:42;;;;;;;3.15;1.02;;;20.30;45.60;;;;;;20714440;28;20057;-80
2022/10/10 07:24:43;;;;;;;1.20;0.45;;;20.30;45.80;;;;;;20672489;28;20043;-80
2022/10/10 07:34:45;;;;;;;1.27;0.70;;;20.20;45.90;;;;;;20624109;28;20030;-80
2022/10/10 07:44:46;;;;;;;0.77;0.50;;;20.20;46.10;;;;;;20654695;28;20097;-79
2022/10/10 07:54:50;;;;;;;1.95;0.68;;;20.20;46.30;;;;;;20638002;28;20038;-79
2022/10/10 08:04:51;;;;;;;0.87;0.50;;;20.20;46.40;;;;;;20673871;28;20399;-81
2022/10/10 08:14:52;;;;;;;1.02;0.70;;;20.10;46.40;;;;;;20619745;28;20040;-81
2022/10/10 08:24:52;;;;;;;2.85;0.90;;;20.20;46.50;;;;;;20620205;28;20118;-80
2022/10/10 08:34:53;;;;;;;1.25;0.50;;;20.20;46.50;;;;;;20635465;28;20081;-80
2022/10/10 08:44:56;;;;;;;0.60;0.60;;;20.30;46.60;;;;;;20652877;28;20034;-80
2022/10/10 08:55:00;;;;;;;1.05;0.60;;;20.30;46.50;;;;;;20667905;28;20304;-80
2022/10/10 09:05:01;;;;;;;2.47;1.58;;;20.40;46.50;;;;;;20634044;28;20061;-81
2022/10/10 09:15:07;;;;;;;0.70;0.38;;;20.40;46.40;;;;;;20611320;28;20043;-81
2022/10/10 09:25:23;;;;;;;2.53;0.55;;;20.50;46.40;;;;;;20673149;28;20042;-80
2022/10/10 09:35:26;;;;;;;2.22;0.70;;;20.50;46.30;;;;;;20690429;28;20041;-80
2022/10/10 09:45:34;;;;;;;2.08;0.95;;;20.60;46.80;;;;;;20631266;28;20041;-79
2022/10/10 09:55:38;;;;;;;1.50;0.45;;;20.70;46.10;;;;;;20631466;28;20069;-79
2022/10/10 10:05:40;;;;;;;1.25;0.63;;;20.80;46.00;;;;;;20631269;28;20073;-81
2022/10/10 10:15:46;;;;;;;0.45;0.30;;;20.90;46.50;;;;;;20645923;28;20046;-79
2022/10/10 10:25:49;;;;;;;0.65;0.60;;;21.00;45.60;;;;;;20628106;28;20068;-79
2022/10/10 10:36:02;;;;;;;0.93;0.60;;;21.10;45.30;;;;;;20639837;28;20332;-76
2022/10/10 10:46:24;;;;;;;1.25;0.70;;;21.10;45.20;;;;;;20665022;28;20485;-75
2022/10/10 10:56:36;;;;;;;0.90;0.50;;;20.70;45.90;;;;;;20660242;28;20121;-74
2022/10/10 11:06:55;;;;;;;1.13;0.75;;;20.30;46.80;;;;;;20582766;28;20038;-76
2022/10/10 11:17:11;;;;;;;0.40;0.40;;;20.00;47.30;;;;;;20578287;28;20625;-80
2022/10/10 11:27:32;;;;;;;;;;;20.10;48.00;;;;;;20705839;28;20428;-80
2022/10/10 11:37:37;;;;;;;4.30;0.82;;;20.20;47.00;;;;;;20664681;28;20020;-79
2022/10/10 11:47:43;;;;;;;1.05;0.60;;;20.50;46.80;;;;;;20638942;28;20055;-79
2022/10/10 11:57:50;;;;;;;0.98;0.65;;;20.60;46.50;;;;;;20616879;28;20042;-78
2022/10/10 12:08:18;;;;;;;1.10;0.65;;;20.80;46.20;;;;;;20693290;28;20128;-77
2022/10/10 12:18:38;;;;;;;1.85;0.40;;;21.00;46.00;;;;;;20717503;28;20037;-78
2022/10/10 12:28:59;;;;;;;1.08;0.52;;;21.10;45.80;;;;;;20685090;28;20045;-73
2022/10/10 12:39:00;;;;;;;1.75;0.60;;;21.20;45.50;;;;;;20668635;28;20034;-77
2022/10/10 12:49:13;;;;;;;0.50;0.50;;;21.20;45.30;;;;;;20732028;28;20730;-78
2022/10/10 12:59:19;;;;;;;1.17;0.60;;;21.30;45.20;;;;;;20652543;28;20034;-77
2022/10/10 13:09:21;;;;;;;3.33;0.60;;;21.40;45.10;;;;;;20585331;28;20050;-77
2022/10/10 13:19:23;;;;;;;0.70;0.50;;;21.40;45.10;;;;;;20542089;28;20065;-78
2022/10/10 13:29:33;;;;;;;0.40;0.40;;;21.40;45.10;;;;;;20703766;28;20141;-78
2022/10/10 13:39:35;;;;;;;1.52;0.77;;;21.40;45.10;;;;;;20745941;28;20038;-79
2022/10/10 13:49:36;;;;;;;0.82;0.50;;;21.40;45.10;;;;;;20710722;28;20088;-79
2022/10/10 13:59:36;;;;;;;1.20;0.38;;;21.40;45.20;;;;;;20591306;28;20034;-78
2022/10/10 14:09:42;;;;;;;1.85;1.00;;;21.40;45.20;;;;;;20731219;28;20038;-78
2022/10/10 14:19:44;;;;;;;1.45;0.73;;;21.40;45.20;;;;;;20689870;28;20038;-80
2022/10/10 14:29:44;;;;;;;1.10;0.60;;;21.40;45.30;;;;;;20565014;28;20480;-78
2022/10/10 14:39:45;;;;;;;2.75;1.13;;;21.40;45.40;;;;;;20580635;28;20102;-77
2022/10/10 14:49:46;;;;;;;1.95;1.08;;;21.40;45.50;;;;;;20663621;28;20129;-76
2022/10/10 14:59:47;;;;;;;1.17;0.68;;;21.40;45.60;;;;;;20674990;28;20041;-76
2022/10/10 15:09:48;;;;;;;4.07;1.25;;;21.40;45.90;;;;;;20641675;28;20049;-76
2022/10/10 15:20:00;;;;;;;3.03;0.98;;;21.50;45.90;;;;;;20621260;28;20041;-76
2022/10/10 15:30:02;;;;;;;2.95;1.20;;;21.50;46.20;;;;;;20635592;28;20142;-75
2022/10/10 15:40:03;;;;;;;2.33;1.08;;;21.40;46.20;;;;;;20669081;28;20480;-76
2022/10/10 15:50:04;;;;;;;8.10;1.17;;;21.40;46.50;;;;;;20650908;28;20104;-76
2022/10/10 16:00:06;;;;;;;3.97;1.30;;;21.50;46.70;;;;;;20629475;28;20627;-81
2022/10/10 16:10:12;;;;;;;8.05;1.38;;;21.50;46.70;;;;;;20682164;28;20039;-72
2022/10/10 16:20:13;;;;;;;2.53;0.80;;;21.50;46.70;;;;;;20646234;28;20041;-75
2022/10/10 16:30:15;;;;;;;4.33;1.20;;;21.40;46.70;;;;;;20614983;28;20042;-76
2022/10/10 16:40:15;;;;;;;5.60;1.05;;;21.40;46.70;;;;;;20624292;28;20332;-74
2022/10/10 16:50:16;;;;;;;4.63;1.17;;;21.50;46.70;;;;;;20726503;28;20088;-75
2022/10/10 17:00:17;;;;;;;5.90;1.20;;;21.40;46.60;;;;;;20624787;28;20042;-76
2022/10/10 17:10:17;;;;;;;2.37;1.00;;;21.40;46.60;;;;;;20627238;28;20464;-76
2022/10/10 17:20:19;;;;;;;0.90;0.68;;;21.40;46.60;;;;;;20589089;28;20629;-77
2022/10/10 17:30:20;;;;;;;3.97;1.00;;;21.40;46.70;;;;;;20619708;28;20042;-75
2022/10/10 17:40:31;;;;;;;2.38;0.95;;;21.40;46.80;;;;;;20610264;28;20061;-76
2022/10/10 17:50:33;;;;;;;0.95;0.70;;;21.40;46.80;;;;;;20662555;28;20443;-75
2022/10/10 18:00:33;;;;;;;3.47;1.05;;;21.40;46.90;;;;;;20604219;28;20033;-75
2022/10/10 18:10:38;;;;;;;2.25;1.17;;;21.30;47.20;;;;;;20600730;28;20053;-76
2022/10/10 18:20:39;;;;;;;2.20;0.98;;;21.30;47.50;;;;;;20641404;28;20407;-76
2022/10/10 18:30:40;;;;;;;2.90;1.05;;;21.30;47.60;;;;;;20641179;28;20038;-75
2022/10/10 18:40:41;;;;;;;2.22;1.40;;;21.20;47.90;;;;;;20619505;28;20035;-78
2022/10/10 18:50:42;;;;;;;3.10;1.20;;;21.20;48.30;;;;;;20608566;28;20141;-77
2022/10/10 19:00:42;;;;;;;2.30;1.20;;;21.20;48.70;;;;;;20671017;28;20121;-77
2022/10/10 19:10:47;;;;;;;4.93;1.05;;;21.20;48.80;;;;;;20655011;28;20056;-78
2022/10/10 19:20:47;;;;;;;4.40;1.30;;;21.10;49.10;;;;;;20640525;28;20435;-78
2022/10/10 19:30:48;;;;;;;4.33;1.03;;;21.00;49.40;;;;;;20656251;28;20113;-76
2022/10/10 19:40:49;;;;;;;4.75;1.45;;;21.00;49.50;;;;;;20623555;28;20753;-76
2022/10/10 19:50:49;;;;;;;2.78;1.13;;;20.90;49.60;;;;;;20655657;28;20053;-77
2022/10/10 20:00:50;;;;;;;3.63;1.30;;;20.90;49.80;;;;;;20661892;28;20494;-77
2022/10/10 20:10:50;;;;;;;2.58;1.20;;;20.90;50.30;;;;;;20713748;28;20483;-78
2022/10/10 20:20:52;;;;;;;2.88;1.35;;;20.80;50.40;;;;;;20734603;28;20045;-77
2022/10/10 20:30:53;;;;;;;2.08;0.82;;;20.80;51.10;;;;;;20656884;28;20038;-78
2022/10/10 20:40:53;;;;;;;1.92;1.00;;;20.80;50.60;;;;;;20644062;28;20033;-79
2022/10/10 20:50:54;;;;;;;3.17;1.10;;;20.80;50.60;;;;;;20712165;28;20399;-77
2022/10/10 21:01:05;;;;;;;1.67;1.02;;;20.80;50.50;;;;;;20715073;28;20030;-77
2022/10/10 21:11:07;;;;;;;1.75;1.00;;;20.80;50.50;;;;;;20731210;28;20073;-79
2022/10/10 21:21:09;;;;;;;2.38;1.23;;;20.70;50.50;;;;;;20684465;28;20030;-78
2022/10/10 21:31:13;;;;;;;2.10;0.93;;;20.80;50.60;;;;;;20713890;28;20388;-78
2022/10/10 21:41:19;;;;;;;2.73;1.10;;;20.80;50.50;;;;;;20713819;28;20034;-77
2022/10/10 21:51:20;;;;;;;2.15;1.13;;;20.70;50.50;;;;;;20713466;28;20041;-77
2022/10/10 22:01:22;;;;;;;1.63;0.80;;;20.70;50.50;;;;;;20707635;28;20480;-77
2022/10/10 22:11:23;;;;;;;4.25;1.17;;;20.70;50.50;;;;;;20631984;28;20385;-77
2022/10/10 22:21:24;;;;;;;1.70;1.08;;;20.60;50.50;;;;;;20662975;28;20042;-77
2022/10/10 22:31:25;;;;;;;4.35;1.27;;;20.70;50.60;;;;;;20642345;28;20082;-78
2022/10/10 22:41:26;;;;;;;1.80;0.77;;;20.60;50.50;;;;;;20675713;28;20041;-78
2022/10/10 22:51:26;;;;;;;5.53;1.20;;;20.60;50.60;;;;;;20740182;28;20293;-78
2022/10/10 23:01:27;;;;;;;1.75;0.80;;;20.60;50.70;;;;;;20740382;28;20501;-77
2022/10/10 23:11:27;;;;;;;4.33;0.80;;;20.50;50.70;;;;;;20714042;28;20093;-78
2022/10/10 23:21:28;;;;;;;2.60;0.90;;;20.50;50.80;;;;;;20605526;28;20042;-78
2022/10/10 23:31:29;;;;;;;1.23;0.80;;;20.50;50.80;;;;;;20641566;28;20042;-77
2022/10/10 23:41:29;;;;;;;3.90;1.03;;;20.50;50.80;;;;;;20657208;28;20312;-77
2022/10/10 23:51:30;;;;;;;1.83;1.00;;;20.50;50.80;;;;;;20639444;28;20772;-77
